Time;durP1;ratioP1;P1;durP2;ratioP2;P2;SDS_P1;SDS_P2;PMS_P1;PMS_P2;Temp;Humidity;BMP_temperature;BMP_pressure;BME280_temperature;BME280_humidity;BME280_pressure;Samples;Min_cycle;Max_cycle;Signal;HPM_P1;HPM_P2
2022/03/08 00:00:24;;;;;;;13.82;10.82;;;;;;;4.38;44.55;102230.84;5099729;28;20035;-71
2022/03/08 00:02:50;;;;;;;15.20;10.70;;;;;;;4.17;45.57;102235.53;5088555;28;20059;-71
2022/03/08 00:05:16;;;;;;;17.02;10.80;;;;;;;3.96;45.94;102233.19;5079606;28;20487;-71
2022/03/08 00:07:42;;;;;;;11.07;9.93;;;;;;;3.96;45.81;102234.06;5107338;28;20059;-70
2022/03/08 00:10:09;;;;;;;13.48;10.90;;;;;;;3.94;46.26;102225.34;5102403;28;20123;-70
2022/03/08 00:12:35;;;;;;;11.88;10.65;;;;;;;4.01;46.26;102228.75;5081616;28;20123;-70
2022/03/08 00:15:01;;;;;;;17.10;10.57;;;;;;;4.05;45.90;102231.31;5097248;28;20110;-70
2022/03/08 00:17:26;;;;;;;12.38;10.95;;;;;;;3.96;46.01;102210.38;5093718;28;20024;-70
2022/03/08 00:19:51;;;;;;;11.18;10.05;;;;;;;4.10;45.73;102224.22;5095470;28;20020;-70
2022/03/08 00:22:17;;;;;;;13.23;10.45;;;;;;;4.10;46.19;102220.72;5094236;28;20130;-70
2022/03/08 00:24:44;;;;;;;14.60;9.55;;;;;;;3.99;45.61;102206.84;5112015;28;20562;-70
2022/03/08 00:27:10;;;;;;;11.40;10.07;;;;;;;4.04;45.99;102219.03;5097285;28;20028;-71
2022/03/08 00:29:35;;;;;;;11.57;10.23;;;;;;;3.96;46.03;102218.28;5091838;28;20028;-70
2022/03/08 00:32:02;;;;;;;10.65;9.63;;;;;;;3.86;46.16;102216.66;5056196;28;20062;-71
2022/03/08 00:34:28;;;;;;;10.90;9.80;;;;;;;3.75;46.20;102219.44;5107612;28;20020;-71
2022/03/08 00:36:54;;;;;;;11.40;10.10;;;;;;;3.85;46.35;102218.44;5076822;28;20509;-70
2022/03/08 00:39:20;;;;;;;10.80;9.68;;;;;;;3.78;46.25;102216.75;5092107;28;20478;-70
2022/03/08 00:41:49;;;;;;;10.27;9.27;;;;;;;3.73;46.25;102215.06;5091439;28;20032;-70
2022/03/08 00:44:14;;;;;;;11.13;9.43;;;;;;;3.63;46.42;102217.81;5056708;28;20032;-70
2022/03/08 00:46:40;;;;;;;12.35;9.40;;;;;;;3.56;46.27;102215.25;5090622;28;20483;-71
2022/03/08 00:49:06;;;;;;;14.93;9.75;;;;;;;3.58;46.52;102217.00;5074066;28;20086;-71
2022/03/08 00:51:31;;;;;;;12.93;9.43;;;;;;;3.60;46.35;102199.44;5104974;28;20024;-70
2022/03/08 00:53:57;;;;;;;11.93;10.05;;;;;;;3.68;46.49;102216.88;5104985;28;20020;-70
2022/03/08 00:56:22;;;;;;;10.95;9.85;;;;;;;3.58;45.80;102218.75;5092042;28;20035;-70
2022/03/08 00:58:52;;;;;;;11.88;10.05;;;;;;;3.50;46.04;102217.97;5070979;28;20529;-71
2022/03/08 01:01:17;;;;;;;11.00;9.82;;;;;;;3.52;46.40;102214.44;5078730;28;20029;-70
2022/03/08 01:03:43;;;;;;;10.90;8.80;;;;;;;3.42;46.12;102218.06;5085927;28;20036;-70
2022/03/08 01:06:11;;;;;;;10.25;9.15;;;;;;;3.39;46.09;102208.47;5090856;28;21157;-70
2022/03/08 01:08:36;;;;;;;11.95;9.68;;;;;;;3.45;45.99;102212.78;5089762;28;20020;-70
2022/03/08 01:11:02;;;;;;;10.45;9.35;;;;;;;3.34;46.08;102210.25;5077382;28;20031;-71
2022/03/08 01:13:27;;;;;;;12.20;10.02;;;;;;;3.24;45.90;102197.25;5075497;28;20021;-70
2022/03/08 01:15:56;;;;;;;10.40;9.30;;;;;;;3.32;45.79;102212.03;5071775;28;20067;-70
2022/03/08 01:18:22;;;;;;;10.30;9.30;;;;;;;3.42;45.66;102207.56;5080374;28;20063;-70
2022/03/08 01:20:47;;;;;;;10.73;8.93;;;;;;;3.29;46.28;102221.72;5072919;28;20487;-70
2022/03/08 01:23:16;;;;;;;10.40;9.40;;;;;;;3.37;45.96;102210.22;5081463;28;20039;-70
2022/03/08 01:25:44;;;;;;;12.00;9.35;;;;;;;3.22;45.86;102210.41;5076727;28;20020;-70
2022/03/08 01:28:14;;;;;;;11.27;9.65;;;;;;;3.18;45.65;102208.69;5078154;28;20040;-70
2022/03/08 01:30:40;;;;;;;11.10;9.30;;;;;;;3.26;45.84;102208.59;5076595;28;20039;-70
2022/03/08 01:33:06;;;;;;;11.20;9.82;;;;;;;3.19;45.91;102197.28;5079506;28;20491;-70
2022/03/08 01:35:34;;;;;;;10.15;9.18;;;;;;;3.24;45.65;102202.50;5088365;28;20020;-71
2022/03/08 01:38:00;;;;;;;10.75;9.65;;;;;;;3.22;45.76;102193.75;5084888;28;20028;-71
2022/03/08 01:40:25;;;;;;;13.55;9.63;;;;;;;3.18;45.84;102187.66;5063913;28;20507;-70
2022/03/08 01:42:51;;;;;;;10.85;9.63;;;;;;;3.18;46.11;102180.66;5078679;28;20059;-70
2022/03/08 01:45:22;;;;;;;10.70;9.60;;;;;;;3.15;46.08;102177.19;5090019;28;20558;-70
2022/03/08 01:47:52;;;;;;;14.68;10.00;;;;;;;3.04;45.99;102179.91;5074296;28;20494;-70
2022/03/08 01:50:18;;;;;;;12.45;9.73;;;;;;;3.10;46.49;102171.09;5085589;28;20521;-70
2022/03/08 01:52:43;;;;;;;9.85;8.95;;;;;;;3.07;46.22;102166.75;5074477;28;20045;-70
2022/03/08 01:55:12;;;;;;;11.52;9.65;;;;;;;3.07;46.33;102169.38;5082869;28;20028;-70
2022/03/08 01:57:37;;;;;;;10.02;9.02;;;;;;;3.05;46.16;102171.13;5074218;28;20070;-70
2022/03/08 02:00:10;;;;;;;12.10;10.10;;;;;;;3.09;45.86;102166.72;5083821;28;20106;-70
2022/03/08 02:02:35;;;;;;;11.05;9.90;;;;;;;3.00;46.66;102158.94;5088583;28;20210;-70
2022/03/08 02:05:00;;;;;;;11.10;9.85;;;;;;;3.08;46.39;102162.34;5090125;28;20548;-70
2022/03/08 02:07:26;;;;;;;10.70;9.57;;;;;;;3.03;46.25;102161.53;5072318;28;20081;-70
2022/03/08 02:09:52;;;;;;;10.43;9.18;;;;;;;2.91;46.36;102157.25;5072746;28;20040;-69
2022/03/08 02:12:18;;;;;;;10.50;9.40;;;;;;;2.89;46.75;102161.69;5090555;28;20020;-70
2022/03/08 02:14:44;;;;;;;12.48;9.98;;;;;;;2.87;47.02;102148.56;5098013;28;20039;-70
2022/03/08 02:17:12;;;;;;;13.63;9.73;;;;;;;2.85;47.14;102157.34;5081510;28;20048;-69
2022/03/08 02:19:40;;;;;;;11.85;10.00;;;;;;;2.81;47.43;102155.63;5084823;28;20036;-70
2022/03/08 02:22:05;;;;;;;12.50;9.73;;;;;;;2.79;47.20;102149.50;5094110;28;20577;-70
2022/03/08 02:24:31;;;;;;;11.63;9.65;;;;;;;2.77;47.45;102154.78;5100311;28;20036;-70
2022/03/08 02:26:58;;;;;;;11.90;9.85;;;;;;;2.72;47.32;102148.72;5090782;28;20032;-70
2022/03/08 02:29:23;;;;;;;10.52;9.45;;;;;;;2.67;47.37;102145.25;5096512;28;20501;-70
2022/03/08 02:31:54;;;;;;;10.82;9.82;;;;;;;2.74;47.08;102157.47;5075282;28;20032;-70
2022/03/08 02:34:19;;;;;;;12.88;10.25;;;;;;;2.61;47.71;102145.31;5077503;28;20433;-70
2022/03/08 02:36:59;;;;;;;10.73;9.45;;;;;;;2.60;47.48;102147.06;5096024;28;20040;-70
2022/03/08 02:39:25;;;;;;;15.95;10.40;;;;;;;2.59;47.93;102144.44;5109220;28;20070;-70
2022/03/08 02:41:51;;;;;;;11.50;10.30;;;;;;;2.49;47.99;102138.41;5102195;28;20110;-70
2022/03/08 02:44:17;;;;;;;10.90;9.40;;;;;;;2.50;47.92;102137.53;5093219;28;20066;-70
2022/03/08 02:46:47;;;;;;;13.82;10.15;;;;;;;2.57;48.19;102128.72;5078581;28;20146;-70
2022/03/08 02:49:13;;;;;;;11.30;10.10;;;;;;;2.62;47.75;102124.31;5098153;28;20137;-70
2022/03/08 02:51:38;;;;;;;12.68;9.95;;;;;;;2.54;47.62;102131.38;5108484;28;20643;-70
2022/03/08 02:54:04;;;;;;;12.10;10.18;;;;;;;2.47;48.01;102127.03;5082863;28;20126;-70
2022/03/08 02:56:32;;;;;;;13.30;9.85;;;;;;;2.64;48.16;102124.25;5080321;28;20043;-69
2022/03/08 02:59:00;;;;;;;11.40;10.00;;;;;;;2.54;48.09;102120.00;5111318;28;20048;-70
2022/03/08 03:01:26;;;;;;;10.80;9.70;;;;;;;2.39;48.30;102116.63;5085664;28;20368;-70
2022/03/08 03:03:51;;;;;;;11.20;10.10;;;;;;;2.39;48.19;102113.13;5088090;28;20038;-70
2022/03/08 03:06:17;;;;;;;13.68;10.40;;;;;;;2.44;48.32;102103.44;5094920;28;20028;-70
2022/03/08 03:08:42;;;;;;;13.10;10.63;;;;;;;2.41;48.50;102100.84;5079688;28;20496;-70
2022/03/08 03:11:08;;;;;;;11.45;10.18;;;;;;;2.37;48.59;102110.50;5057614;28;20051;-70
2022/03/08 03:13:34;;;;;;;10.70;9.55;;;;;;;2.33;48.92;102100.94;5086317;28;20056;-70
2022/03/08 03:15:59;;;;;;;13.32;10.77;;;;;;;2.35;48.76;102096.50;5075593;28;20382;-70
2022/03/08 03:18:25;;;;;;;10.25;8.63;;;;;;;2.27;49.06;102101.84;5099094;28;20020;-70
2022/03/08 03:20:50;;;;;;;11.52;9.48;;;;;;;2.29;48.96;102093.94;5103936;28;20034;-70
2022/03/08 03:23:15;;;;;;;11.15;10.05;;;;;;;2.34;48.79;102081.66;5061963;28;20198;-70
2022/03/08 03:25:41;;;;;;;11.80;9.52;;;;;;;2.38;48.37;102077.25;5078790;28;20503;-70
2022/03/08 03:28:07;;;;;;;10.85;9.70;;;;;;;2.23;48.95;102076.50;5093253;28;20027;-70
2022/03/08 03:30:32;;;;;;;11.15;9.95;;;;;;;2.35;48.79;102074.66;5099729;28;20046;-70
2022/03/08 03:33:02;;;;;;;11.95;9.98;;;;;;;2.27;48.97;102066.88;5111011;28;20080;-70
2022/03/08 03:35:29;;;;;;;12.77;10.02;;;;;;;2.27;48.83;102067.72;5090038;28;20474;-70
2022/03/08 03:37:54;;;;;;;10.70;9.60;;;;;;;2.20;49.26;102059.91;5102407;28;20077;-70
2022/03/08 03:40:20;;;;;;;10.98;9.90;;;;;;;2.10;49.37;102063.50;5093812;28;20123;-69
2022/03/08 03:42:45;;;;;;;11.82;10.63;;;;;;;2.22;49.83;102063.41;5105783;28;20430;-70
2022/03/08 03:45:13;;;;;;;11.20;9.68;;;;;;;2.17;49.65;102065.19;5091536;28;20057;-70
2022/03/08 03:47:39;;;;;;;11.57;10.40;;;;;;;2.09;49.71;102070.50;5096355;28;20038;-70
2022/03/08 03:50:09;;;;;;;12.50;10.85;;;;;;;2.04;50.18;102062.66;5099931;28;20117;-70
2022/03/08 03:52:35;;;;;;;11.18;10.07;;;;;;;2.00;49.67;102076.72;5104735;28;20662;-70
2022/03/08 03:55:02;;;;;;;12.52;9.90;;;;;;;1.88;49.79;102054.91;5058626;28;20028;-70
2022/03/08 03:57:27;;;;;;;11.57;10.38;;;;;;;1.93;49.99;102067.13;5079306;28;20031;-70
2022/03/08 03:59:53;;;;;;;11.85;10.65;;;;;;;2.07;50.15;102074.03;5090170;28;20031;-70
2022/03/08 04:02:19;;;;;;;12.52;9.93;;;;;;;2.09;49.56;102073.13;5081449;28;20412;-70
2022/03/08 04:04:45;;;;;;;11.80;10.60;;;;;;;2.12;49.40;102069.59;5094565;28;20114;-70
2022/03/08 04:07:11;;;;;;;12.10;10.90;;;;;;;2.06;49.37;102065.28;5093060;28;20492;-70
2022/03/08 04:09:36;;;;;;;12.25;10.10;;;;;;;1.85;49.94;102054.94;5107699;28;20028;-69
2022/03/08 04:12:02;;;;;;;13.70;9.60;;;;;;;1.89;49.67;102070.66;5111838;28;20478;-70
2022/03/08 04:14:28;;;;;;;11.50;10.18;;;;;;;1.77;50.43;102063.75;5070811;28;20441;-70
2022/03/08 04:16:54;;;;;;;13.48;9.77;;;;;;;1.77;50.53;102069.00;5073651;28;20031;-69
2022/03/08 04:19:19;;;;;;;13.00;10.23;;;;;;;1.70;50.62;102067.28;5074310;28;20386;-70
2022/03/08 04:21:44;;;;;;;11.02;9.93;;;;;;;1.65;50.92;102058.59;5060871;28;20205;-70
2022/03/08 04:24:12;;;;;;;12.68;10.50;;;;;;;1.66;50.79;102054.22;5041239;28;20119;-69
2022/03/08 04:26:38;;;;;;;12.93;10.68;;;;;;;1.57;51.16;102056.00;5108886;28;20027;-70
2022/03/08 04:29:04;;;;;;;11.77;10.20;;;;;;;1.58;51.15;102056.88;5091341;28;20489;-69
2022/03/08 04:31:29;;;;;;;12.00;10.32;;;;;;;1.59;50.98;102058.66;5103295;28;20115;-70
2022/03/08 04:33:55;;;;;;;11.67;10.50;;;;;;;1.55;51.30;102056.91;5106124;28;20027;-70
2022/03/08 04:36:20;;;;;;;13.18;11.00;;;;;;;1.62;50.76;102053.38;5094527;28;20174;-70
2022/03/08 04:38:46;;;;;;;13.30;10.93;;;;;;;1.61;50.79;102051.63;5095808;28;20483;-70
2022/03/08 04:41:11;;;;;;;20.87;11.03;;;;;;;1.67;51.44;102064.69;5091577;28;20028;-70
2022/03/08 04:43:37;;;;;;;12.25;10.95;;;;;;;1.58;51.02;102055.13;5099453;28;20059;-69
2022/03/08 04:46:03;;;;;;;12.30;10.80;;;;;;;1.61;51.23;102056.00;5076500;28;20032;-70
2022/03/08 04:48:29;;;;;;;11.57;10.33;;;;;;;1.57;51.31;102056.00;5088564;28;20024;-69
2022/03/08 04:50:54;;;;;;;12.35;11.05;;;;;;;1.62;51.42;102055.09;5101388;28;20042;-70
2022/03/08 04:53:19;;;;;;;12.15;10.95;;;;;;;1.51;51.56;102048.19;5080939;28;20052;-70
2022/03/08 04:55:45;;;;;;;12.40;11.07;;;;;;;1.67;50.88;102055.94;5098698;28;20393;-70
2022/03/08 04:58:11;;;;;;;17.52;11.57;;;;;;;1.65;50.93;102060.31;5081129;28;20567;-70
2022/03/08 05:00:36;;;;;;;11.93;10.73;;;;;;;1.72;51.09;102060.28;5075446;28;20076;-70
2022/03/08 05:03:02;;;;;;;11.90;10.65;;;;;;;1.69;51.35;102055.06;5060096;28;20066;-70
2022/03/08 05:05:29;;;;;;;11.77;10.67;;;;;;;1.59;51.07;102041.16;5073593;28;20039;-70
2022/03/08 05:07:55;;;;;;;17.02;11.35;;;;;;;1.57;51.08;102060.38;5079837;28;20074;-70
2022/03/08 05:10:21;;;;;;;14.47;11.20;;;;;;;1.52;51.36;102057.78;5072119;28;20028;-70
2022/03/08 05:12:47;;;;;;;13.55;10.68;;;;;;;1.48;51.93;102055.22;5087410;28;20035;-70
2022/03/08 05:15:13;;;;;;;14.13;11.13;;;;;;;1.43;51.64;102049.97;5078287;28;20034;-70
2022/03/08 05:17:39;;;;;;;13.75;10.77;;;;;;;1.56;51.88;102054.28;5093759;28;20020;-70
2022/03/08 05:20:06;;;;;;;12.00;10.80;;;;;;;1.44;51.82;102040.34;5091384;28;20052;-70
2022/03/08 05:22:31;;;;;;;14.10;11.05;;;;;;;1.40;52.16;102031.66;5106391;28;20374;-70
2022/03/08 05:24:57;;;;;;;12.70;10.45;;;;;;;1.41;51.68;102040.38;5082033;28;20035;-69
2022/03/08 05:27:22;;;;;;;12.52;10.68;;;;;;;1.41;52.11;102041.25;5077048;28;20035;-70
2022/03/08 05:29:47;;;;;;;12.93;10.77;;;;;;;1.52;51.63;102042.06;5090405;28;20086;-70
2022/03/08 05:32:13;;;;;;;12.00;10.75;;;;;;;1.48;51.80;102037.72;5110363;28;20053;-69
2022/03/08 05:34:39;;;;;;;14.47;10.83;;;;;;;1.47;51.57;102036.00;5086062;28;20056;-69
2022/03/08 05:37:07;;;;;;;14.20;10.57;;;;;;;1.54;51.59;102039.44;5091727;28;20027;-69
2022/03/08 05:39:33;;;;;;;13.97;11.03;;;;;;;1.47;52.22;102035.09;5099573;28;20056;-69
2022/03/08 05:41:58;;;;;;;13.77;10.60;;;;;;;1.50;52.10;102038.59;5075403;28;20051;-70
2022/03/08 05:44:23;;;;;;;13.33;10.83;;;;;;;1.41;52.09;102029.91;5074636;28;20412;-70
2022/03/08 05:46:50;;;;;;;12.43;10.80;;;;;;;1.37;52.36;102029.06;5076903;28;20461;-70
2022/03/08 05:49:15;;;;;;;12.70;10.30;;;;;;;1.33;51.97;102041.31;5077890;28;20518;-69
2022/03/08 05:51:42;;;;;;;13.40;10.23;;;;;;;1.40;52.65;102041.28;5094493;28;20351;-70
2022/03/08 05:54:08;;;;;;;11.60;10.50;;;;;;;1.09;52.78;102005.63;5086743;28;20054;-69
2022/03/08 05:56:34;;;;;;;12.20;10.60;;;;;;;1.27;52.46;102036.09;5090518;28;20115;-70
2022/03/08 05:58:59;;;;;;;12.57;11.13;;;;;;;1.30;52.85;102048.31;5068903;28;20058;-69
2022/03/08 06:01:25;;;;;;;14.00;11.50;;;;;;;1.19;52.69;102037.88;5097384;28;20450;-69
2022/03/08 06:03:50;;;;;;;13.23;11.10;;;;;;;1.20;52.32;102036.13;5092493;28;20032;-69
2022/03/08 06:06:16;;;;;;;14.67;11.57;;;;;;;1.15;52.93;102030.94;5075038;28;20055;-69
2022/03/08 06:08:44;;;;;;;14.52;11.25;;;;;;;1.11;53.21;102031.81;5055616;28;20123;-70
2022/03/08 06:11:09;;;;;;;15.20;10.93;;;;;;;1.23;52.65;102033.50;5096312;28;20028;-69
2022/03/08 06:13:35;;;;;;;13.80;11.33;;;;;;;1.19;53.12;102027.41;5079515;28;20104;-69
2022/03/08 06:16:00;;;;;;;13.27;11.83;;;;;;;1.13;52.82;102038.78;5098605;28;20023;-69
2022/03/08 06:18:26;;;;;;;13.47;11.30;;;;;;;1.13;52.74;102023.06;5105775;28;20023;-69
2022/03/08 06:20:52;;;;;;;11.73;10.50;;;;;;;1.19;53.35;102037.88;5094862;28;20027;-69
2022/03/08 06:23:17;;;;;;;12.20;11.00;;;;;;;1.11;53.38;102031.81;5094618;28;20031;-69
2022/03/08 06:25:43;;;;;;;13.23;11.87;;;;;;;1.20;52.88;102044.84;5093792;28;20050;-69
2022/03/08 06:28:08;;;;;;;13.07;10.20;;;;;;;1.11;52.72;102035.28;5096660;28;20032;-69
2022/03/08 06:30:34;;;;;;;13.60;10.63;;;;;;;1.10;52.90;102036.19;5075133;28;20036;-69
2022/03/08 06:33:00;;;;;;;13.97;10.40;;;;;;;1.08;53.27;102037.06;5061258;28;20403;-69
2022/03/08 06:35:28;;;;;;;12.70;10.90;;;;;;;1.11;53.67;102047.53;5082949;28;20051;-69
2022/03/08 06:37:53;;;;;;;13.83;10.80;;;;;;;1.20;53.44;102036.13;5076218;28;20036;-69
2022/03/08 06:40:19;;;;;;;12.23;11.03;;;;;;;1.06;53.42;102017.84;5080879;28;20375;-69
2022/03/08 06:42:44;;;;;;;15.67;10.60;;;;;;;1.22;53.22;102035.25;5096661;28;20042;-69
2022/03/08 06:45:11;;;;;;;12.90;11.37;;;;;;;1.21;53.32;102032.66;5093963;28;20402;-69
2022/03/08 06:47:40;;;;;;;12.53;11.23;;;;;;;1.29;53.25;102030.84;5114055;28;20035;-69
2022/03/08 06:50:25;;;;;;;12.07;10.60;;;;;;;1.31;52.55;102032.56;5051830;28;20346;-69
2022/03/08 06:52:53;;;;;;;11.67;10.40;;;;;;;1.32;52.82;102039.56;5064966;28;20052;-69
2022/03/08 06:55:19;;;;;;;12.32;11.13;;;;;;;1.38;52.78;102045.63;5035534;28;20037;-69
2022/03/08 06:57:45;;;;;;;12.45;11.15;;;;;;;1.38;52.67;102028.16;5034094;28;20518;-68
2022/03/08 07:00:11;;;;;;;12.00;10.80;;;;;;;1.40;52.16;102029.03;5031199;28;20044;-69
2022/03/08 07:02:36;;;;;;;13.37;10.67;;;;;;;1.51;52.70;102040.31;5056998;28;20039;-69
2022/03/08 07:05:03;;;;;;;13.60;11.48;;;;;;;1.55;52.67;102026.31;5038413;28;20211;-69
2022/03/08 07:07:29;;;;;;;13.55;11.32;;;;;;;1.74;52.01;102024.44;5034469;28;20037;-69
2022/03/08 07:09:55;;;;;;;13.33;10.80;;;;;;;1.85;51.54;102026.97;5041486;28;20064;-70
2022/03/08 07:12:20;;;;;;;15.05;11.15;;;;;;;1.85;51.31;102026.97;5050815;28;20025;-70
2022/03/08 07:14:46;;;;;;;15.68;10.70;;;;;;;1.86;50.86;102030.47;5051462;28;20439;-70
2022/03/08 07:17:11;;;;;;;14.20;11.40;;;;;;;1.96;50.68;102033.00;5029128;28;20071;-70
2022/03/08 07:19:37;;;;;;;15.70;11.23;;;;;;;1.85;50.63;102019.09;5050729;28;20062;-70
2022/03/08 07:22:03;;;;;;;12.75;10.77;;;;;;;2.01;50.68;102043.47;5072009;28;20066;-69
2022/03/08 07:24:28;;;;;;;12.32;11.10;;;;;;;2.17;50.31;102049.44;5099010;28;20042;-70
2022/03/08 07:26:56;;;;;;;14.25;11.65;;;;;;;2.20;50.15;102044.16;5109968;28;20023;-69
2022/03/08 07:29:21;;;;;;;14.95;11.77;;;;;;;2.24;49.94;102040.66;5077505;28;20510;-69
2022/03/08 07:31:47;;;;;;;13.63;11.20;;;;;;;2.35;49.68;102048.41;5081375;28;20039;-69
2022/03/08 07:34:14;;;;;;;13.40;10.93;;;;;;;2.35;49.32;102043.16;5083900;28;20032;-70
2022/03/08 07:36:40;;;;;;;12.73;10.90;;;;;;;2.39;49.19;102040.50;5060837;28;20395;-70
2022/03/08 07:39:06;;;;;;;12.10;10.95;;;;;;;2.53;48.99;102053.50;5098060;28;20455;-69
2022/03/08 07:41:32;;;;;;;11.65;10.43;;;;;;;2.60;48.95;102044.66;5095051;28;20106;-71
2022/03/08 07:43:58;;;;;;;12.52;10.75;;;;;;;2.63;48.08;102038.50;5096059;28;20376;-70
2022/03/08 07:46:24;;;;;;;12.80;11.07;;;;;;;2.69;48.38;102039.28;5092279;28;20031;-69
2022/03/08 07:48:49;;;;;;;13.25;11.23;;;;;;;2.83;47.71;102033.88;5075191;28;20036;-70
2022/03/08 07:51:15;;;;;;;11.52;10.32;;;;;;;2.92;46.86;102027.66;5056315;28;20032;-70
2022/03/08 07:53:41;;;;;;;13.88;11.00;;;;;;;2.96;46.61;102030.19;5075384;28;20028;-69
2022/03/08 07:56:07;;;;;;;12.10;10.77;;;;;;;3.11;46.61;102034.41;5092822;28;20035;-69
2022/03/08 07:58:37;;;;;;;14.50;10.52;;;;;;;3.19;46.03;102032.53;5074689;28;20751;-70
2022/03/08 08:01:03;;;;;;;12.93;10.95;;;;;;;3.30;45.96;102039.44;5074757;28;20028;-70
2022/03/08 08:03:29;;;;;;;13.00;9.90;;;;;;;3.37;45.45;102028.78;5103329;28;20061;-70
2022/03/08 08:05:54;;;;;;;11.43;10.23;;;;;;;3.52;45.14;102039.97;5088497;28;20028;-70
2022/03/08 08:08:20;;;;;;;12.93;10.05;;;;;;;3.54;44.73;102023.28;5092919;28;20024;-70
2022/03/08 08:10:45;;;;;;;11.90;10.38;;;;;;;3.64;44.01;102024.00;5086062;28;20039;-70
2022/03/08 08:13:11;;;;;;;16.48;10.45;;;;;;;3.76;44.27;102028.22;5106694;28;20539;-69
2022/03/08 08:15:37;;;;;;;13.13;10.85;;;;;;;4.01;44.48;102041.88;5104134;28;20028;-69
2022/03/08 08:18:03;;;;;;;11.63;10.43;;;;;;;4.12;43.43;102039.03;5080324;28;20036;-69
2022/03/08 08:20:29;;;;;;;11.45;10.35;;;;;;;4.17;43.16;102040.69;5076669;28;20555;-69
2022/03/08 08:22:54;;;;;;;14.02;9.77;;;;;;;4.31;43.43;102043.09;5075113;28;20032;-69
2022/03/08 08:25:20;;;;;;;12.75;9.82;;;;;;;4.48;43.09;102048.06;5076413;28;20499;-69
2022/03/08 08:27:45;;;;;;;11.45;10.35;;;;;;;4.50;41.88;102046.25;5092926;28;20036;-69
2022/03/08 08:30:14;;;;;;;11.80;10.60;;;;;;;4.48;42.88;102041.03;5093442;28;20075;-69
2022/03/08 08:32:41;;;;;;;11.27;10.07;;;;;;;4.68;42.20;102039.78;5094179;28;20030;-69
2022/03/08 08:35:07;;;;;;;10.90;9.80;;;;;;;4.81;42.19;102036.00;5086531;28;20024;-69
2022/03/08 08:37:33;;;;;;;11.63;10.18;;;;;;;5.13;42.13;102034.47;5106815;28;20028;-69
2022/03/08 08:39:59;;;;;;;14.18;10.38;;;;;;;5.28;40.68;102026.22;5093889;28;20023;-69
2022/03/08 08:42:25;;;;;;;11.23;10.07;;;;;;;5.39;40.56;102032.13;5112628;28;20031;-69
2022/03/08 08:44:51;;;;;;;10.90;9.77;;;;;;;5.51;40.23;102035.41;5109384;28;20024;-69
2022/03/08 08:47:16;;;;;;;11.82;9.10;;;;;;;5.49;39.88;102034.56;5093956;28;20034;-69
2022/03/08 08:49:42;;;;;;;10.13;9.00;;;;;;;5.56;39.04;102036.16;5094312;28;20027;-69
2022/03/08 08:52:08;;;;;;;10.80;9.32;;;;;;;5.58;39.59;102011.47;5093815;28;20119;-69
2022/03/08 08:54:36;;;;;;;10.30;9.20;;;;;;;5.58;39.05;102023.78;5076336;28;20035;-69
2022/03/08 08:57:03;;;;;;;10.13;9.13;;;;;;;5.62;38.78;102021.06;5112095;28;20478;-69
2022/03/08 08:59:29;;;;;;;13.75;9.55;;;;;;;5.64;38.91;102023.66;5089936;28;20073;-69
2022/03/08 09:01:55;;;;;;;10.90;9.35;;;;;;;5.73;38.55;102023.41;5091182;28;20035;-69
2022/03/08 09:04:21;;;;;;;9.85;8.85;;;;;;;5.66;38.03;101990.19;5088703;28;20104;-69
2022/03/08 09:06:46;;;;;;;10.93;8.80;;;;;;;5.88;38.88;102022.19;5087529;28;20405;-69
2022/03/08 09:09:12;;;;;;;9.85;8.82;;;;;;;5.86;38.25;102027.53;5070083;28;20032;-70
2022/03/08 09:11:38;;;;;;;38.20;9.75;;;;;;;5.87;38.20;102029.25;5051421;28;20033;-70
2022/03/08 09:14:04;;;;;;;9.50;8.60;;;;;;;5.89;38.23;102022.16;5073375;28;20039;-70
2022/03/08 09:16:30;;;;;;;9.23;8.32;;;;;;;6.02;38.16;102028.03;5088162;28;20107;-69
2022/03/08 09:18:58;;;;;;;10.95;9.35;;;;;;;6.11;38.02;102030.44;5091377;28;20024;-69
2022/03/08 09:21:24;;;;;;;10.38;8.85;;;;;;;6.09;37.51;102024.34;5091310;28;20028;-70
2022/03/08 09:23:52;;;;;;;14.82;9.43;;;;;;;6.23;37.11;102020.47;5086128;28;20032;-69
2022/03/08 09:26:20;;;;;;;13.48;9.35;;;;;;;6.37;36.99;102011.25;5069643;28;20123;-69
2022/03/08 09:28:47;;;;;;;12.10;8.80;;;;;;;6.55;36.73;102003.75;5063733;28;20131;-69
2022/03/08 09:31:13;;;;;;;12.10;9.82;;;;;;;6.70;36.81;101998.03;5090564;28;20114;-70
2022/03/08 09:33:40;;;;;;;14.82;8.98;;;;;;;7.11;36.42;102001.25;5090822;28;20126;-69
2022/03/08 09:36:05;;;;;;;9.55;8.65;;;;;;;7.14;35.38;101993.22;5084934;28;20467;-69
2022/03/08 09:38:30;;;;;;;10.23;8.88;;;;;;;7.34;35.00;101994.38;5058169;28;20028;-70
2022/03/08 09:41:01;;;;;;;8.98;7.65;;;;;;;7.24;34.75;101994.69;5070732;28;20368;-70
2022/03/08 09:43:27;;;;;;;10.95;7.75;;;;;;;7.38;35.09;101990.72;5074492;28;20035;-69
2022/03/08 09:45:52;;;;;;;10.00;7.97;;;;;;;7.42;34.46;101979.16;5075748;28;20029;-70
2022/03/08 09:48:18;;;;;;;14.10;9.18;;;;;;;7.60;34.08;101983.84;5057300;28;20468;-70
2022/03/08 09:50:44;;;;;;;12.07;8.18;;;;;;;7.67;33.57;101997.75;5073721;28;20063;-70
2022/03/08 09:53:12;;;;;;;10.00;7.65;;;;;;;7.50;33.87;101980.63;5074797;28;20089;-70
2022/03/08 09:55:39;;;;;;;14.98;8.07;;;;;;;7.57;33.50;101991.88;5088552;28;20027;-70
2022/03/08 09:58:05;;;;;;;9.27;7.72;;;;;;;7.60;33.35;101994.44;5080723;28;20057;-70
2022/03/08 10:00:32;;;;;;;9.45;7.75;;;;;;;7.92;34.04;101980.13;5076280;28;20024;-70
2022/03/08 10:02:58;;;;;;;8.13;7.03;;;;;;;8.02;33.25;101979.81;5095172;28;20058;-70
2022/03/08 10:05:26;;;;;;;8.73;7.68;;;;;;;8.04;33.50;101965.59;5105402;28;20047;-70
2022/03/08 10:08:13;;;;;;;8.15;7.00;;;;;;;8.35;33.15;101965.41;5105864;28;20030;-70
2022/03/08 10:11:05;;;;;;;8.77;7.55;;;;;;;8.45;32.30;101970.41;5088376;28;20051;-70
2022/03/08 10:13:38;;;;;;;8.23;6.90;;;;;;;8.33;32.16;101967.22;5090423;28;20102;-70
2022/03/08 10:16:29;;;;;;;10.48;7.65;;;;;;;8.45;32.31;101965.09;5098226;28;20039;-70
2022/03/08 10:19:08;;;;;;;7.60;6.80;;;;;;;8.54;31.99;101970.06;5095558;28;20042;-70
2022/03/08 10:21:43;;;;;;;8.82;7.38;;;;;;;8.59;32.37;101962.81;5093759;28;20036;-70
2022/03/08 10:24:21;;;;;;;8.55;7.32;;;;;;;8.66;32.29;101956.34;5104148;28;20042;-70
2022/03/08 10:26:58;;;;;;;11.05;7.38;;;;;;;8.75;32.06;101953.34;5093525;28;20024;-70
2022/03/08 10:29:29;;;;;;;9.18;7.63;;;;;;;8.78;31.99;101961.19;5101075;28;20019;-70
2022/03/08 10:32:09;;;;;;;7.82;7.07;;;;;;;9.19;32.03;101966.69;5076384;28;20024;-70
2022/03/08 10:34:36;;;;;;;9.48;7.35;;;;;;;9.35;30.73;101964.28;5099510;28;20020;-70
2022/03/08 10:37:12;;;;;;;11.00;7.72;;;;;;;9.31;30.97;101968.00;5079215;28;20410;-70
2022/03/08 10:39:55;;;;;;;10.98;7.35;;;;;;;9.38;31.30;101963.31;5095664;28;20043;-70
2022/03/08 10:42:24;;;;;;;9.05;7.40;;;;;;;9.34;30.66;101949.28;5113718;28;20153;-70
2022/03/08 10:44:50;;;;;;;9.45;6.80;;;;;;;9.53;30.30;101954.75;5114766;28;20077;-70
2022/03/08 10:47:17;;;;;;;8.80;6.88;;;;;;;9.51;30.38;101927.38;5104419;28;20028;-71
2022/03/08 10:49:50;;;;;;;8.55;7.63;;;;;;;9.66;30.67;101940.00;5095917;28;20012;-71
2022/03/08 10:52:15;;;;;;;10.60;7.05;;;;;;;9.81;30.47;101938.50;5075960;28;20020;-71
2022/03/08 10:54:41;;;;;;;9.57;7.38;;;;;;;9.89;30.36;101941.72;5075562;28;20114;-71
2022/03/08 10:57:08;;;;;;;10.23;7.40;;;;;;;10.23;29.88;101926.94;5075224;28;20232;-71
2022/03/08 10:59:34;;;;;;;9.25;7.15;;;;;;;10.57;29.52;101936.97;5078463;28;20093;-72
2022/03/08 11:02:21;;;;;;;9.45;7.00;;;;;;;10.89;29.18;101935.47;5058427;28;20482;-72
2022/03/08 11:04:48;;;;;;;9.45;6.78;;;;;;;11.39;28.68;101936.66;5101391;28;20540;-71
2022/03/08 11:07:14;;;;;;;8.02;6.72;;;;;;;11.36;28.23;101940.34;5095903;28;20112;-71
2022/03/08 11:09:41;;;;;;;13.20;6.95;;;;;;;11.39;28.35;101928.66;5101474;28;20031;-72
2022/03/08 11:12:08;;;;;;;8.50;6.72;;;;;;;11.66;28.36;101925.56;5113839;28;20051;-72
2022/03/08 11:14:33;;;;;;;9.52;6.18;;;;;;;12.27;27.63;101925.97;5114221;28;20030;-72
2022/03/08 11:17:00;;;;;;;9.68;6.18;;;;;;;12.72;26.10;101916.41;5113140;28;20471;-72
2022/03/08 11:19:28;;;;;;;8.73;6.22;;;;;;;13.01;26.09;101926.44;5102774;28;20015;-72